Johnsons Bayou, Louisiana
Current Conditions -  °F | °C
As of 10:15 AM on Friday 31 Oct 2014 (Local Time) from KORG Reporting Station
Clear Clear  
Wind Chill: 65°   Ceiling: Unl
Heat Index: 65°   Visibility: 10mi
Dew Point: 51°   Wind: 6mph
Humidity: 60%   Direction: 350°N
Pressure: 30.17"   Gusts: NA
Location:  29.8391°N, 93.6411°W
Report Text: KORG 311515Z AUTO 35005KT 10SM CLR 18/11 A3017 RMK AO2 T01840106
Loading
Personal Weather Stations






























Interactive Weather Map
Tropical Storm Tracking
New forecast layout! Learn more

10-Day Weather Forecast

Advertisements
Track Severe Weather on mobile